Timeline UpdatesTrip UpdatesNews PostsPvt PostsTravel TipsAdmin PostsConv PostsFollowed PostsChat RequestsBlog PostsPNR Posts

Disclaimer
Search
 
 
Wed Oct 1, 2014 11:30:00 ISTHomeTrainsΣChainsAtlasPNRForumGalleryNewsFAQTripsMembersLoginFeedback
No Recent News for this Train
Other Trains in the News **new
Latest...
.
Mon Aug 26, 2013 (09:43AM)
⇐ Return Journey: Train# 11027

11028/Chennai-Mumbai CST Mail

Time-Table HAS CHANGED.
Sep 03 (10:10PM)
Change Departure Station:
Change Arrival Station:
Post a Train Travel TipPost a Train Travel Tip **new
Post a Comment/Question/Picture/VideoPost a Comment/Question/Picture/Video
Pantry/Catering
✓ Pantry Car Avbl
✓ Catering Avbl
RSA - Rake Sharing
11041 Mumbai Chennai Express
Rake/Coach Composition
Loco >SLR >UR >RMS>A1 >B1 >S10 To > S6 >PC >S5 To >S1>UR >LDS >S11 (S11 From Solapur To Daund Junction )
Loco
MAS-GTL=> LGD WAP-4 GTL-PUNE=> GY WDM-3A PUNE-CSTM=> KYN WCAM #2P/3
News    PNR    Forum    Time-Table    Availability    Fare Chart    Map    Arr/Dep History    Trips    Gallery    ΣChains    X/O    Timeline    
Travel Time: 16h 22m    29 halts    Distance: 685 km    Avg Speed: 41 km/hr
Type: Mail/Express
Zone: CR/Central
Departs @ 22:50 (Avg 2m late)
Platform# 1
SMTWTFS
Chennai Central/MAS 
Arrives @ 15:12 +1 night (Avg 9m late)
Platform# 1
SMTWTFS
Shahabad/SDB 

29 halts. 111 intermediate Stations between Chennai Central and Shahabad

Show ALL intermediate Stations  Show Old Time-Table

#CodeStation NameX/OArrivesAvgDepartsAvgHaltPFDay#KmSpeedElevZoneAddress
1MASChennai Central (11)»  -22:50+2110.0649mSRChennai 600003, Tamil Nadu
2TRLTiruvallur (6)  23:29+1323:30+141m--141.74950mSRTiruvallur, Tamil Nadu
3AJJArakkonam Junction (8)  00:01 00:03+900:05+94 2m--268.74591mSRArakkonam, Tamil Nadu
4TRTTiruttani (3)  00:24+900:25+101m3283.06384mSRTiruttani, Tamil Nadu
5PUTPuttur (3)O  00:54+1200:55+141m12113.322149mSRPuttur, Andhra Pradesh
6RURenigunta Junction (5)X  02:00+202:20 02:05+1620 5m12136.763113mSCRChittoor District, Andhra Pradesh
7KOUKoduru (2)  02:59 02:44+1603:00 02:45+181m22177.669215mSCRKadapa (YSR District), Andhra Pradesh
8RJPRazampeta (2)  03:29 03:14+1703:30 03:15+191m22211.245144mSCRKadapa (YSR District), Andhra Pradesh
9NRENandalur  03:44 03:29+1903:45 03:30+201m--2221.746143mSCRRayalaseema Region, Andhra Pradesh
10HXKadapa (3)X  04:34 04:23+904:35 04:25+121 2m32262.275146mSCRCuddapah, Andhra Pradesh
11KKMKamalapuram (2)X  04:54 04:44+1504:55 04:45+181m--2285.949141mSCRKadapa (YSR District), Andhra Pradesh
12YAYerraguntla (2)  05:09 05:04+2105:10 05:05+221m--2301.370171mSCRKadapa / Cuddapah (YSR District), Andhra Pradesh
13MOOMuddanuru (3)X  05:24 05:19+2805:25 05:20+291m--2317.632194mSCRKadapa (YSR District), Andhra Pradesh
14KDPKondapuram (2)  06:04+1206:05+221m--2341.265214mSCRKadapa (YSR District), Andhra Pradesh
15TUTadipatri (3)06:31+2406:32+251m12369.267243mSCRAnantapuram Dist, Andhra Pradesh
16RLORayala Cheruvu (2)X  06:54+2906:55+311m12393.722292mSCRRayalacheruvu, Andhra Pradesh
17GYGooty Junction (2)  07:59+1008:00+131m22417.357370mSCRNH 7 Anantapur District, Andhra Pradesh
18GTLGuntakal Junction (6)X08:30+1808:50+2520m52445.975453mSCRGuntakal. Tel: 08552-227131/32, Andhra Pradesh
19NRRNagarur (2)  09:39 09:24+2709:40 09:25+271m22488.463427mSCRKurnool, Andhra Pradesh
20ADAdoni (4)  09:59 09:34+2310:00 09:35+241m42497.962420mSCRAdoni Tel: 08512-252368, Andhra Pradesh
21KGLKupgal (2)  10:14 09:49+2810:15 09:50+291m12512.391417mSCRKurnool Dist., Andhra Pradesh
22KOKosigi (2)  10:24 09:59+3310:25 10:00+351m22526.024379mSCRKurnool Dist., Andhra Pradesh
23MALMMantralayam Road (3)X  10:59 10:33+2011:00 10:35+331 2m12539.175335mSCRKurnool Tel: 08512-259830, Andhra Pradesh
24MTUMatmari  11:14 10:44+3511:15 10:45+351m12550.357371mSCRRaichur, Karnataka
25RCRaichur Junction (3)  11:54 11:03+2611:55 11:05+311 2m22567.563406mSCRRaichur, Karnataka
26KSNKrishna (2)  12:19 11:29+3612:20 11:30+361m22592.764352mSCRDist Mahabubnagar, Telangana
27SADPSaidapur (3)  12:37 11:49+3812:38 11:50+391m22613.042377mSCRYadgir Dist., Karnataka
28YGYadgir (3)  12:56 12:23+3912:57 12:25+521 2m22636.180369mSCRYadgir, Karnataka
29NWNalwar (2)X  13:31 12:44+5413:32 12:45+1:071m12661.56406mSCRGulbarga, Karnataka
30WADIWadi Junction (4)  14:55+415:00+75m32675.250431mCRWadi, Karnataka
31SDBShahabad (3)•  15:12+915:13+101m12685.355403mCRShahabad, Karnataka
32GRGulbarga (4)  15:44 15:42+515:45+91 3m12712.061458mCRGulbarga 585101, Karnataka
33GURGanagapur Road16:11+1016:12+151m12738.443445mCRDist Gulbarga, Karnataka
34DUDDudhani (2)X  16:44+1516:45+201m12761.458457mCRSolapur, Maharashtra
35AKORAkalkot Road (2)  17:14+2317:15+271m12789.364456mCRDist Solapur, Maharashtra
36HGHotgi Junction (3)  17:41 17:34+2417:42 17:35+251m22809.626473mCRHotgi 413215, Maharashtra
37SURSolapur (5)18:10+1618:20+2210m32824.669461mCRSolapur 413001, Maharashtra
38MOMohol (2)XO  18:49+2418:50+261m12857.972458mCRSolapur, Maharashtra
39MAMadha (2)X  19:15+2519:16+271m12887.750481mCRSolapur, Maharashtra
40KWVKurduvadi Junction (4)O  19:36 19:35+2719:37+291 2m22903.660516mCRKurduvadi Dist-Solapur, Maharashtra
41KEMKem (2)  19:55+3319:56+371m12921.754548mCRKem, Maharashtra
42JEURJeur (1)  20:14+3620:15+401m12937.856526mCRJeur, Maharashtra
43BGVNBhigwan (2)X  21:04+2821:05+291m12983.837509mCRDaund, Maharashtra
44DDDaund Junction (7)21:50+1121:55+185m621011.550521mCRNew Daund Dist. Pune 413801, Maharashtra
45PUNEPune Junction (6)23:25+323:40+1015m321087.140556mCRPune 411001, Maharashtra
46KKKhadki (3)  23:49+1723:50+181m221093.164562mCRPune 411003, Maharashtra
47LNLLonavala (3)  00:44+900:45+121m231150.736623mCRLonavala 410401, Maharashtra
48KJTKarjat Junction (4)X  01:34 01:33+1301:35+151 2m231179.45657mCRKarjat, Maharashtra
49KYNKalyan Junction (8)  02:29 02:25+1202:30+121 5m731226.29310mCRKalyan 421301, Maharashtra
50TNAThane (10)  02:44 02:43+1702:45+221 2m631246.45810mCRThane (West) 400602, Maharashtra
51DRMumbai Dadar Central (8)  03:14 03:10+1903:15+221 5m631270.7177mCRMumbai 400014, Maharashtra
52CSTMMumbai CST (18)  03:45+8-1631279.3-10mCRMumbai 400001, Maharashtra
Scroll to Top
Scroll to Bottom